sensor_id;sensor_type;location;lat;lon;timestamp;temperature;humidity
1778;DHT22;886;50.082;8.222;2023-03-01T00:02:20;3.10;94.10
1778;DHT22;886;50.082;8.222;2023-03-01T00:04:49;3.00;94.10
1778;DHT22;886;50.082;8.222;2023-03-01T00:07:20;3.00;94.20
1778;DHT22;886;50.082;8.222;2023-03-01T00:09:50;3.00;94.20
1778;DHT22;886;50.082;8.222;2023-03-01T00:12:22;3.00;94.20
1778;DHT22;886;50.082;8.222;2023-03-01T00:14:52;3.00;94.40
1778;DHT22;886;50.082;8.222;2023-03-01T00:17:31;2.90;95.10
1778;DHT22;886;50.082;8.222;2023-03-01T00:20:12;2.90;94.90
1778;DHT22;886;50.082;8.222;2023-03-01T00:22:43;2.80;94.90
1778;DHT22;886;50.082;8.222;2023-03-01T00:25:14;2.90;94.70
1778;DHT22;886;50.082;8.222;2023-03-01T00:27:42;2.90;95.00
1778;DHT22;886;50.082;8.222;2023-03-01T00:30:29;2.90;95.00
1778;DHT22;886;50.082;8.222;2023-03-01T00:33:01;2.90;94.70
1778;DHT22;886;50.082;8.222;2023-03-01T00:35:40;2.90;94.90
1778;DHT22;886;50.082;8.222;2023-03-01T00:38:18;2.90;95.00
1778;DHT22;886;50.082;8.222;2023-03-01T00:40:48;2.90;94.80
1778;DHT22;886;50.082;8.222;2023-03-01T00:43:29;2.80;95.00
1778;DHT22;886;50.082;8.222;2023-03-01T00:46:07;2.90;94.90
1778;DHT22;886;50.082;8.222;2023-03-01T00:48:42;2.90;94.70
1778;DHT22;886;50.082;8.222;2023-03-01T00:51:14;2.90;94.80
1778;DHT22;886;50.082;8.222;2023-03-01T00:53:44;2.90;94.80
1778;DHT22;886;50.082;8.222;2023-03-01T00:56:20;2.90;95.00
1778;DHT22;886;50.082;8.222;2023-03-01T00:58:53;2.90;94.90
1778;DHT22;886;50.082;8.222;2023-03-01T01:01:27;2.90;94.90
1778;DHT22;886;50.082;8.222;2023-03-01T01:04:02;2.90;94.80
1778;DHT22;886;50.082;8.222;2023-03-01T01:06:47;2.80;95.00
1778;DHT22;886;50.082;8.222;2023-03-01T01:09:22;2.60;95.60
1778;DHT22;886;50.082;8.222;2023-03-01T01:12:07;2.40;96.10
1778;DHT22;886;50.082;8.222;2023-03-01T01:14:38;2.30;96.60
1778;DHT22;886;50.082;8.222;2023-03-01T01:17:07;2.20;96.50
1778;DHT22;886;50.082;8.222;2023-03-01T01:19:37;2.20;96.80
1778;DHT22;886;50.082;8.222;2023-03-01T01:22:14;2.10;97.00
1778;DHT22;886;50.082;8.222;2023-03-01T01:24:46;1.80;97.60
1778;DHT22;886;50.082;8.222;2023-03-01T01:27:15;1.80;97.70
1778;DHT22;886;50.082;8.222;2023-03-01T01:29:42;1.90;97.60
1778;DHT22;886;50.082;8.222;2023-03-01T01:32:10;1.90;97.80
1778;DHT22;886;50.082;8.222;2023-03-01T01:34:38;2.00;97.80
1778;DHT22;886;50.082;8.222;2023-03-01T01:37:06;2.00;97.70
1778;DHT22;886;50.082;8.222;2023-03-01T01:39:34;2.10;97.50
1778;DHT22;886;50.082;8.222;2023-03-01T01:42:02;2.10;97.60
1778;DHT22;886;50.082;8.222;2023-03-01T01:44:32;2.00;97.70
1778;DHT22;886;50.082;8.222;2023-03-01T01:47:04;1.90;98.10
1778;DHT22;886;50.082;8.222;2023-03-01T01:49:36;2.00;97.80
1778;DHT22;886;50.082;8.222;2023-03-01T01:52:10;2.10;97.60
1778;DHT22;886;50.082;8.222;2023-03-01T01:54:44;2.20;97.40
1778;DHT22;886;50.082;8.222;2023-03-01T01:57:18;2.30;97.10
1778;DHT22;886;50.082;8.222;2023-03-01T01:59:53;2.20;97.10
1778;DHT22;886;50.082;8.222;2023-03-01T02:02:24;2.30;96.90
1778;DHT22;886;50.082;8.222;2023-03-01T02:05:00;2.30;96.70
1778;DHT22;886;50.082;8.222;2023-03-01T02:07:30;2.40;96.60
1778;DHT22;886;50.082;8.222;2023-03-01T02:09:58;2.40;96.40
1778;DHT22;886;50.082;8.222;2023-03-01T02:12:25;2.40;96.40
1778;DHT22;886;50.082;8.222;2023-03-01T02:14:53;2.40;96.40
1778;DHT22;886;50.082;8.222;2023-03-01T02:17:21;2.40;96.50
1778;DHT22;886;50.082;8.222;2023-03-01T02:19:59;2.40;96.50
1778;DHT22;886;50.082;8.222;2023-03-01T02:22:35;2.30;96.70
1778;DHT22;886;50.082;8.222;2023-03-01T02:25:12;2.20;96.90
1778;DHT22;886;50.082;8.222;2023-03-01T02:28:25;2.20;97.00
1778;DHT22;886;50.082;8.222;2023-03-01T02:30:56;2.10;97.30
1778;DHT22;886;50.082;8.222;2023-03-01T02:33:43;2.10;97.40
1778;DHT22;886;50.082;8.222;2023-03-01T02:36:15;2.10;97.70
1778;DHT22;886;50.082;8.222;2023-03-01T02:38:48;2.10;97.50
1778;DHT22;886;50.082;8.222;2023-03-01T02:41:17;2.10;97.70
1778;DHT22;886;50.082;8.222;2023-03-01T02:43:47;2.00;98.00
1778;DHT22;886;50.082;8.222;2023-03-01T02:46:17;2.00;97.90
1778;DHT22;886;50.082;8.222;2023-03-01T02:48:48;2.00;98.10
1778;DHT22;886;50.082;8.222;2023-03-01T02:51:33;2.00;98.10
1778;DHT22;886;50.082;8.222;2023-03-01T02:54:15;1.90;98.50
1778;DHT22;886;50.082;8.222;2023-03-01T02:56:47;1.80;98.50
1778;DHT22;886;50.082;8.222;2023-03-01T02:59:19;1.90;98.60
1778;DHT22;886;50.082;8.222;2023-03-01T03:01:48;2.10;97.60
1778;DHT22;886;50.082;8.222;2023-03-01T03:04:17;2.30;97.10
1778;DHT22;886;50.082;8.222;2023-03-01T03:06:46;2.40;96.60
1778;DHT22;886;50.082;8.222;2023-03-01T03:09:14;2.50;96.30
1778;DHT22;886;50.082;8.222;2023-03-01T03:11:43;2.60;96.20
1778;DHT22;886;50.082;8.222;2023-03-01T03:14:13;2.60;96.10
1778;DHT22;886;50.082;8.222;2023-03-01T03:16:44;2.70;95.90
1778;DHT22;886;50.082;8.222;2023-03-01T03:19:13;2.70;95.80
1778;DHT22;886;50.082;8.222;2023-03-01T03:21:40;2.70;95.70
1778;DHT22;886;50.082;8.222;2023-03-01T03:24:08;2.80;95.50
1778;DHT22;886;50.082;8.222;2023-03-01T03:26:36;2.80;95.40
1778;DHT22;886;50.082;8.222;2023-03-01T03:29:04;2.70;95.60
1778;DHT22;886;50.082;8.222;2023-03-01T03:31:31;2.70;96.20
1778;DHT22;886;50.082;8.222;2023-03-01T03:34:01;2.60;96.40
1778;DHT22;886;50.082;8.222;2023-03-01T03:36:28;2.60;96.00
1778;DHT22;886;50.082;8.222;2023-03-01T03:38:56;2.60;95.80
1778;DHT22;886;50.082;8.222;2023-03-01T03:41:24;2.50;96.30
1778;DHT22;886;50.082;8.222;2023-03-01T03:43:51;2.40;96.90
1778;DHT22;886;50.082;8.222;2023-03-01T03:46:21;2.20;97.60
1778;DHT22;886;50.082;8.222;2023-03-01T03:48:48;2.10;97.60
1778;DHT22;886;50.082;8.222;2023-03-01T03:51:18;1.90;98.00
1778;DHT22;886;50.082;8.222;2023-03-01T03:53:46;1.90;98.20
1778;DHT22;886;50.082;8.222;2023-03-01T03:56:14;1.90;98.10
1778;DHT22;886;50.082;8.222;2023-03-01T03:58:41;2.00;97.60
1778;DHT22;886;50.082;8.222;2023-03-01T04:01:09;1.90;97.90
1778;DHT22;886;50.082;8.222;2023-03-01T04:03:38;1.90;98.10
1778;DHT22;886;50.082;8.222;2023-03-01T04:06:06;1.80;98.20
1778;DHT22;886;50.082;8.222;2023-03-01T04:08:34;1.80;98.40
1778;DHT22;886;50.082;8.222;2023-03-01T04:11:04;1.80;98.40
1778;DHT22;886;50.082;8.222;2023-03-01T04:13:52;1.70;98.50
1778;DHT22;886;50.082;8.222;2023-03-01T04:16:23;1.70;98.70
1778;DHT22;886;50.082;8.222;2023-03-01T04:18:51;1.80;98.70
1778;DHT22;886;50.082;8.222;2023-03-01T04:21:21;1.80;98.40
1778;DHT22;886;50.082;8.222;2023-03-01T04:23:50;1.90;98.10
1778;DHT22;886;50.082;8.222;2023-03-01T04:26:19;1.70;98.60
1778;DHT22;886;50.082;8.222;2023-03-01T04:28:47;1.60;99.00
1778;DHT22;886;50.082;8.222;2023-03-01T04:31:18;1.60;98.90
1778;DHT22;886;50.082;8.222;2023-03-01T04:33:50;1.60;99.30
1778;DHT22;886;50.082;8.222;2023-03-01T04:36:20;1.60;99.30
1778;DHT22;886;50.082;8.222;2023-03-01T04:38:52;1.60;99.10
1778;DHT22;886;50.082;8.222;2023-03-01T04:41:22;1.60;99.00
1778;DHT22;886;50.082;8.222;2023-03-01T04:43:51;1.60;98.90
1778;DHT22;886;50.082;8.222;2023-03-01T04:46:20;1.60;99.10
1778;DHT22;886;50.082;8.222;2023-03-01T04:48:48;1.60;99.00
1778;DHT22;886;50.082;8.222;2023-03-01T04:51:16;1.70;99.10
1778;DHT22;886;50.082;8.222;2023-03-01T04:53:44;1.60;98.90
1778;DHT22;886;50.082;8.222;2023-03-01T04:56:14;1.50;99.20
1778;DHT22;886;50.082;8.222;2023-03-01T04:58:42;1.40;99.30
1778;DHT22;886;50.082;8.222;2023-03-01T05:01:10;1.40;99.60
1778;DHT22;886;50.082;8.222;2023-03-01T05:03:42;1.30;99.80
1778;DHT22;886;50.082;8.222;2023-03-01T05:06:11;1.20;99.50
1778;DHT22;886;50.082;8.222;2023-03-01T05:08:39;1.30;99.70
1778;DHT22;886;50.082;8.222;2023-03-01T05:11:07;1.50;99.00
1778;DHT22;886;50.082;8.222;2023-03-01T05:13:38;1.70;98.50
1778;DHT22;886;50.082;8.222;2023-03-01T05:16:07;1.60;98.60
1778;DHT22;886;50.082;8.222;2023-03-01T05:18:39;1.60;98.90
1778;DHT22;886;50.082;8.222;2023-03-01T05:21:09;1.60;98.60
1778;DHT22;886;50.082;8.222;2023-03-01T05:23:38;1.70;98.90
1778;DHT22;886;50.082;8.222;2023-03-01T05:26:06;1.60;99.10
1778;DHT22;886;50.082;8.222;2023-03-01T05:28:53;1.40;99.60
1778;DHT22;886;50.082;8.222;2023-03-01T05:31:26;1.20;99.90
1778;DHT22;886;50.082;8.222;2023-03-01T05:33:54;1.30;99.90
1778;DHT22;886;50.082;8.222;2023-03-01T05:36:21;1.20;99.90
1778;DHT22;886;50.082;8.222;2023-03-01T05:38:49;1.20;99.90
1778;DHT22;886;50.082;8.222;2023-03-01T05:41:17;1.40;99.90
1778;DHT22;886;50.082;8.222;2023-03-01T05:43:44;1.30;99.90
1778;DHT22;886;50.082;8.222;2023-03-01T05:46:13;1.30;99.90
1778;DHT22;886;50.082;8.222;2023-03-01T05:48:42;1.30;99.90
1778;DHT22;886;50.082;8.222;2023-03-01T05:51:09;1.30;99.90
1778;DHT22;886;50.082;8.222;2023-03-01T05:53:37;1.30;99.90
1778;DHT22;886;50.082;8.222;2023-03-01T05:56:05;1.30;99.90
1778;DHT22;886;50.082;8.222;2023-03-01T05:58:33;1.30;99.90
1778;DHT22;886;50.082;8.222;2023-03-01T06:01:01;1.30;99.90
1778;DHT22;886;50.082;8.222;2023-03-01T06:03:29;1.30;99.90
1778;DHT22;886;50.082;8.222;2023-03-01T06:05:57;1.40;99.90
1778;DHT22;886;50.082;8.222;2023-03-01T06:08:25;1.40;99.90
1778;DHT22;886;50.082;8.222;2023-03-01T06:10:54;1.30;99.90
1778;DHT22;886;50.082;8.222;2023-03-01T06:13:21;1.40;99.90
1778;DHT22;886;50.082;8.222;2023-03-01T06:15:50;1.40;99.90
1778;DHT22;886;50.082;8.222;2023-03-01T06:18:17;1.40;99.90
1778;DHT22;886;50.082;8.222;2023-03-01T06:20:54;1.40;99.90
1778;DHT22;886;50.082;8.222;2023-03-01T06:23:22;1.40;99.90
1778;DHT22;886;50.082;8.222;2023-03-01T06:25:50;1.50;99.90
1778;DHT22;886;50.082;8.222;2023-03-01T06:28:17;1.50;99.90
1778;DHT22;886;50.082;8.222;2023-03-01T06:30:44;1.60;99.90
1778;DHT22;886;50.082;8.222;2023-03-01T06:33:13;1.60;99.90
1778;DHT22;886;50.082;8.222;2023-03-01T06:35:41;1.70;99.70
1778;DHT22;886;50.082;8.222;2023-03-01T06:38:10;1.70;99.70
1778;DHT22;886;50.082;8.222;2023-03-01T06:40:37;1.90;98.90
1778;DHT22;886;50.082;8.222;2023-03-01T06:43:05;1.70;99.80
1778;DHT22;886;50.082;8.222;2023-03-01T06:45:34;1.70;99.90
1778;DHT22;886;50.082;8.222;2023-03-01T06:48:02;1.70;99.90
1778;DHT22;886;50.082;8.222;2023-03-01T06:50:31;1.70;99.90
1778;DHT22;886;50.082;8.222;2023-03-01T06:52:59;1.70;99.90
1778;DHT22;886;50.082;8.222;2023-03-01T06:55:28;1.80;99.80
1778;DHT22;886;50.082;8.222;2023-03-01T06:57:55;1.80;99.80
1778;DHT22;886;50.082;8.222;2023-03-01T07:00:24;2.00;99.50
1778;DHT22;886;50.082;8.222;2023-03-01T07:02:52;2.10;98.80
1778;DHT22;886;50.082;8.222;2023-03-01T07:05:20;2.20;98.50
1778;DHT22;886;50.082;8.222;2023-03-01T07:07:47;2.30;98.00
1778;DHT22;886;50.082;8.222;2023-03-01T07:10:14;2.40;97.40
1778;DHT22;886;50.082;8.222;2023-03-01T07:12:43;2.50;96.60
1778;DHT22;886;50.082;8.222;2023-03-01T07:15:11;2.70;96.50
1778;DHT22;886;50.082;8.222;2023-03-01T07:17:38;2.70;96.30
1778;DHT22;886;50.082;8.222;2023-03-01T07:20:05;2.80;95.70
1778;DHT22;886;50.082;8.222;2023-03-01T07:22:33;2.90;95.50
1778;DHT22;886;50.082;8.222;2023-03-01T07:25:00;2.90;95.30
1778;DHT22;886;50.082;8.222;2023-03-01T07:27:28;3.00;95.10
1778;DHT22;886;50.082;8.222;2023-03-01T07:29:56;3.00;95.00
1778;DHT22;886;50.082;8.222;2023-03-01T07:32:23;3.10;95.00
1778;DHT22;886;50.082;8.222;2023-03-01T07:34:51;3.10;95.20
1778;DHT22;886;50.082;8.222;2023-03-01T07:37:19;3.20;94.80
1778;DHT22;886;50.082;8.222;2023-03-01T07:39:46;3.20;94.70
1778;DHT22;886;50.082;8.222;2023-03-01T07:42:13;3.20;94.70
1778;DHT22;886;50.082;8.222;2023-03-01T07:44:40;3.30;94.50
1778;DHT22;886;50.082;8.222;2023-03-01T07:47:09;3.30;94.40
1778;DHT22;886;50.082;8.222;2023-03-01T07:49:37;3.40;94.30
1778;DHT22;886;50.082;8.222;2023-03-01T07:52:04;3.50;94.20
1778;DHT22;886;50.082;8.222;2023-03-01T07:54:32;3.50;93.90
1778;DHT22;886;50.082;8.222;2023-03-01T07:56:59;3.50;93.90
1778;DHT22;886;50.082;8.222;2023-03-01T07:59:27;3.50;93.90
1778;DHT22;886;50.082;8.222;2023-03-01T08:01:56;3.50;93.70
1778;DHT22;886;50.082;8.222;2023-03-01T08:04:25;3.50;93.60
1778;DHT22;886;50.082;8.222;2023-03-01T08:06:54;3.60;93.50
1778;DHT22;886;50.082;8.222;2023-03-01T08:09:21;3.50;93.50
1778;DHT22;886;50.082;8.222;2023-03-01T08:11:49;3.60;93.40
1778;DHT22;886;50.082;8.222;2023-03-01T08:14:16;3.60;93.50
1778;DHT22;886;50.082;8.222;2023-03-01T08:16:44;3.60;93.40
1778;DHT22;886;50.082;8.222;2023-03-01T08:19:12;3.70;93.30
1778;DHT22;886;50.082;8.222;2023-03-01T08:21:40;3.80;93.30
1778;DHT22;886;50.082;8.222;2023-03-01T08:24:08;3.80;93.30
1778;DHT22;886;50.082;8.222;2023-03-01T08:26:38;3.80;93.30
1778;DHT22;886;50.082;8.222;2023-03-01T08:29:05;3.90;93.30
1778;DHT22;886;50.082;8.222;2023-03-01T08:31:35;3.90;93.00
1778;DHT22;886;50.082;8.222;2023-03-01T08:34:06;4.00;93.20
1778;DHT22;886;50.082;8.222;2023-03-01T08:36:37;4.00;93.00
1778;DHT22;886;50.082;8.222;2023-03-01T08:39:08;4.10;92.90
1778;DHT22;886;50.082;8.222;2023-03-01T08:41:37;4.30;92.90
1778;DHT22;886;50.082;8.222;2023-03-01T08:44:05;4.40;92.60
1778;DHT22;886;50.082;8.222;2023-03-01T08:46:35;4.50;92.50
1778;DHT22;886;50.082;8.222;2023-03-01T08:49:04;4.60;92.30
1778;DHT22;886;50.082;8.222;2023-03-01T08:51:32;4.60;92.20
1778;DHT22;886;50.082;8.222;2023-03-01T08:54:03;4.60;92.10
1778;DHT22;886;50.082;8.222;2023-03-01T08:56:33;4.60;92.10
1778;DHT22;886;50.082;8.222;2023-03-01T08:59:01;4.50;92.10
1778;DHT22;886;50.082;8.222;2023-03-01T09:01:30;4.60;92.10
1778;DHT22;886;50.082;8.222;2023-03-01T09:03:57;4.70;92.10
1778;DHT22;886;50.082;8.222;2023-03-01T09:06:25;4.80;91.90
1778;DHT22;886;50.082;8.222;2023-03-01T09:08:53;4.90;91.90
1778;DHT22;886;50.082;8.222;2023-03-01T09:11:22;4.90;91.80
1778;DHT22;886;50.082;8.222;2023-03-01T09:13:50;5.00;91.60
1778;DHT22;886;50.082;8.222;2023-03-01T09:16:20;5.00;91.60
1778;DHT22;886;50.082;8.222;2023-03-01T09:18:50;5.10;91.50
1778;DHT22;886;50.082;8.222;2023-03-01T09:21:19;5.20;91.40
1778;DHT22;886;50.082;8.222;2023-03-01T09:24:05;5.20;91.20
1778;DHT22;886;50.082;8.222;2023-03-01T09:26:33;5.20;91.20
1778;DHT22;886;50.082;8.222;2023-03-01T09:29:02;5.30;91.00
1778;DHT22;886;50.082;8.222;2023-03-01T09:31:29;5.30;91.00
1778;DHT22;886;50.082;8.222;2023-03-01T09:33:57;5.40;91.20
1778;DHT22;886;50.082;8.222;2023-03-01T09:36:24;5.40;90.90
1778;DHT22;886;50.082;8.222;2023-03-01T09:38:52;5.50;91.00
1778;DHT22;886;50.082;8.222;2023-03-01T09:41:43;5.50;90.80
1778;DHT22;886;50.082;8.222;2023-03-01T09:47:19;5.70;90.50
1778;DHT22;886;50.082;8.222;2023-03-01T09:49:56;5.70;90.50
1778;DHT22;886;50.082;8.222;2023-03-01T09:52:32;5.80;90.60
1778;DHT22;886;50.082;8.222;2023-03-01T09:55:10;5.80;90.40
1778;DHT22;886;50.082;8.222;2023-03-01T09:57:45;5.80;90.30
1778;DHT22;886;50.082;8.222;2023-03-01T10:00:28;5.80;90.50
1778;DHT22;886;50.082;8.222;2023-03-01T10:03:03;5.80;90.40
1778;DHT22;886;50.082;8.222;2023-03-01T10:05:44;5.90;90.40
1778;DHT22;886;50.082;8.222;2023-03-01T10:08:34;6.00;90.10
1778;DHT22;886;50.082;8.222;2023-03-01T10:11:20;6.00;90.10
1778;DHT22;886;50.082;8.222;2023-03-01T10:13:56;6.10;90.20
1778;DHT22;886;50.082;8.222;2023-03-01T10:16:37;6.20;90.10
1778;DHT22;886;50.082;8.222;2023-03-01T10:19:14;6.30;90.20
1778;DHT22;886;50.082;8.222;2023-03-01T10:21:45;6.30;89.80
1778;DHT22;886;50.082;8.222;2023-03-01T10:24:15;6.40;89.60
1778;DHT22;886;50.082;8.222;2023-03-01T10:26:51;6.40;89.00
1778;DHT22;886;50.082;8.222;2023-03-01T10:29:26;6.50;88.80
1778;DHT22;886;50.082;8.222;2023-03-01T10:31:57;6.50;88.80
1778;DHT22;886;50.082;8.222;2023-03-01T10:34:29;6.50;89.00
1778;DHT22;886;50.082;8.222;2023-03-01T10:37:00;6.70;88.90
1778;DHT22;886;50.082;8.222;2023-03-01T10:39:36;6.70;88.00
1778;DHT22;886;50.082;8.222;2023-03-01T10:42:05;6.80;87.60
1778;DHT22;886;50.082;8.222;2023-03-01T10:44:48;6.80;87.20
1778;DHT22;886;50.082;8.222;2023-03-01T10:47:19;6.70;87.20
1778;DHT22;886;50.082;8.222;2023-03-01T10:49:54;6.80;87.50
1778;DHT22;886;50.082;8.222;2023-03-01T10:52:26;6.80;87.50
1778;DHT22;886;50.082;8.222;2023-03-01T10:54:57;6.90;88.10
1778;DHT22;886;50.082;8.222;2023-03-01T10:57:31;6.90;87.60
1778;DHT22;886;50.082;8.222;2023-03-01T11:00:19;6.90;87.10
1778;DHT22;886;50.082;8.222;2023-03-01T11:03:02;6.90;86.50
1778;DHT22;886;50.082;8.222;2023-03-01T11:05:36;6.90;86.70
1778;DHT22;886;50.082;8.222;2023-03-01T11:08:04;7.00;85.70
1778;DHT22;886;50.082;8.222;2023-03-01T11:10:33;7.00;85.60
1778;DHT22;886;50.082;8.222;2023-03-01T11:13:07;7.10;85.50
1778;DHT22;886;50.082;8.222;2023-03-01T11:15:36;7.20;85.40
1778;DHT22;886;50.082;8.222;2023-03-01T11:18:05;7.20;84.40
1778;DHT22;886;50.082;8.222;2023-03-01T11:20:45;7.20;84.60
1778;DHT22;886;50.082;8.222;2023-03-01T11:23:14;7.30;84.10
1778;DHT22;886;50.082;8.222;2023-03-01T11:25:46;7.30;83.60
1778;DHT22;886;50.082;8.222;2023-03-01T11:28:19;7.30;83.90
1778;DHT22;886;50.082;8.222;2023-03-01T11:30:53;7.30;83.00
1778;DHT22;886;50.082;8.222;2023-03-01T11:33:43;7.30;83.30
1778;DHT22;886;50.082;8.222;2023-03-01T11:36:18;7.30;82.90
1778;DHT22;886;50.082;8.222;2023-03-01T11:38:54;7.40;83.00
1778;DHT22;886;50.082;8.222;2023-03-01T11:41:25;7.50;83.00
1778;DHT22;886;50.082;8.222;2023-03-01T11:43:58;7.60;83.00
1778;DHT22;886;50.082;8.222;2023-03-01T11:46:58;7.60;82.20
1778;DHT22;886;50.082;8.222;2023-03-01T11:50:08;7.60;81.80
1778;DHT22;886;50.082;8.222;2023-03-01T11:52:52;7.60;81.40
1778;DHT22;886;50.082;8.222;2023-03-01T11:55:40;7.60;81.50
1778;DHT22;886;50.082;8.222;2023-03-01T11:58:29;7.60;81.00
1778;DHT22;886;50.082;8.222;2023-03-01T12:01:24;7.60;81.30
1778;DHT22;886;50.082;8.222;2023-03-01T12:07:19;7.70;81.60
1778;DHT22;886;50.082;8.222;2023-03-01T12:10:19;7.80;81.70
1778;DHT22;886;50.082;8.222;2023-03-01T12:16:19;7.80;82.60
1778;DHT22;886;50.082;8.222;2023-03-01T12:19:28;7.80;83.20
1778;DHT22;886;50.082;8.222;2023-03-01T12:22:20;7.90;82.50
1778;DHT22;886;50.082;8.222;2023-03-01T12:31:29;8.10;82.30
1778;DHT22;886;50.082;8.222;2023-03-01T12:34:05;8.00;80.90
1778;DHT22;886;50.082;8.222;2023-03-01T12:36:52;8.00;81.10
1778;DHT22;886;50.082;8.222;2023-03-01T12:39:43;8.00;81.00
1778;DHT22;886;50.082;8.222;2023-03-01T12:42:23;8.00;80.80
1778;DHT22;886;50.082;8.222;2023-03-01T12:45:21;8.00;80.50
1778;DHT22;886;50.082;8.222;2023-03-01T12:48:06;8.00;80.80
1778;DHT22;886;50.082;8.222;2023-03-01T12:50:41;8.10;80.90
1778;DHT22;886;50.082;8.222;2023-03-01T12:53:22;8.20;80.30
1778;DHT22;886;50.082;8.222;2023-03-01T12:55:54;8.20;80.20
1778;DHT22;886;50.082;8.222;2023-03-01T12:58:31;8.20;79.50
1778;DHT22;886;50.082;8.222;2023-03-01T13:01:22;8.20;79.50
1778;DHT22;886;50.082;8.222;2023-03-01T13:04:07;8.20;79.40
1778;DHT22;886;50.082;8.222;2023-03-01T13:07:01;8.20;79.70
1778;DHT22;886;50.082;8.222;2023-03-01T13:09:38;8.30;79.60
1778;DHT22;886;50.082;8.222;2023-03-01T13:12:44;8.30;79.80
1778;DHT22;886;50.082;8.222;2023-03-01T13:15:32;8.30;79.60
1778;DHT22;886;50.082;8.222;2023-03-01T13:18:02;8.30;79.90
1778;DHT22;886;50.082;8.222;2023-03-01T13:20:34;8.30;79.80
1778;DHT22;886;50.082;8.222;2023-03-01T13:23:24;8.30;79.70
1778;DHT22;886;50.082;8.222;2023-03-01T13:26:03;8.40;79.60
1778;DHT22;886;50.082;8.222;2023-03-01T13:28:50;8.40;79.80
1778;DHT22;886;50.082;8.222;2023-03-01T13:34:45;8.60;79.20
1778;DHT22;886;50.082;8.222;2023-03-01T13:37:22;8.60;79.00
1778;DHT22;886;50.082;8.222;2023-03-01T13:40:03;8.60;78.50
1778;DHT22;886;50.082;8.222;2023-03-01T13:42:50;8.60;78.30
1778;DHT22;886;50.082;8.222;2023-03-01T13:45:38;8.60;78.20
1778;DHT22;886;50.082;8.222;2023-03-01T13:48:11;8.50;78.10
1778;DHT22;886;50.082;8.222;2023-03-01T13:50:46;8.60;78.40
1778;DHT22;886;50.082;8.222;2023-03-01T13:53:18;8.60;78.40
1778;DHT22;886;50.082;8.222;2023-03-01T13:55:49;8.60;78.00
1778;DHT22;886;50.082;8.222;2023-03-01T13:58:24;8.70;77.80
1778;DHT22;886;50.082;8.222;2023-03-01T14:00:58;8.80;77.90
1778;DHT22;886;50.082;8.222;2023-03-01T14:03:28;8.80;77.60
1778;DHT22;886;50.082;8.222;2023-03-01T14:06:02;8.80;77.70
1778;DHT22;886;50.082;8.222;2023-03-01T14:08:46;8.80;77.30
1778;DHT22;886;50.082;8.222;2023-03-01T14:11:34;8.80;78.00
1778;DHT22;886;50.082;8.222;2023-03-01T14:14:40;8.80;76.90
1778;DHT22;886;50.082;8.222;2023-03-01T14:17:38;8.80;76.50
1778;DHT22;886;50.082;8.222;2023-03-01T14:20:16;8.80;76.60
1778;DHT22;886;50.082;8.222;2023-03-01T14:22:46;8.90;76.50
1778;DHT22;886;50.082;8.222;2023-03-01T14:25:21;8.90;76.70
1778;DHT22;886;50.082;8.222;2023-03-01T14:28:03;8.90;77.00
1778;DHT22;886;50.082;8.222;2023-03-01T14:30:35;8.90;76.60
1778;DHT22;886;50.082;8.222;2023-03-01T14:33:17;8.90;76.70
1778;DHT22;886;50.082;8.222;2023-03-01T14:35:56;8.90;76.60
1778;DHT22;886;50.082;8.222;2023-03-01T14:38:30;9.00;76.90
1778;DHT22;886;50.082;8.222;2023-03-01T14:41:01;9.00;77.00
1778;DHT22;886;50.082;8.222;2023-03-01T14:43:32;9.00;76.60
1778;DHT22;886;50.082;8.222;2023-03-01T14:46:00;9.00;76.90
1778;DHT22;886;50.082;8.222;2023-03-01T14:48:30;9.00;76.50
1778;DHT22;886;50.082;8.222;2023-03-01T14:50:58;9.00;76.40
1778;DHT22;886;50.082;8.222;2023-03-01T14:53:29;9.00;76.50
1778;DHT22;886;50.082;8.222;2023-03-01T14:56:14;9.00;77.00
1778;DHT22;886;50.082;8.222;2023-03-01T14:58:44;9.00;77.10
1778;DHT22;886;50.082;8.222;2023-03-01T15:01:16;9.00;77.40
1778;DHT22;886;50.082;8.222;2023-03-01T15:03:47;9.00;76.80
1778;DHT22;886;50.082;8.222;2023-03-01T15:06:17;9.00;76.90
1778;DHT22;886;50.082;8.222;2023-03-01T15:08:47;8.80;76.80
1778;DHT22;886;50.082;8.222;2023-03-01T15:11:20;8.90;76.70
1778;DHT22;886;50.082;8.222;2023-03-01T15:13:50;8.90;76.50
1778;DHT22;886;50.082;8.222;2023-03-01T15:16:21;8.90;76.50
1778;DHT22;886;50.082;8.222;2023-03-01T15:18:55;8.90;76.60
1778;DHT22;886;50.082;8.222;2023-03-01T15:21:26;8.90;76.80
1778;DHT22;886;50.082;8.222;2023-03-01T15:23:59;8.90;77.20
1778;DHT22;886;50.082;8.222;2023-03-01T15:26:35;8.90;77.30
1778;DHT22;886;50.082;8.222;2023-03-01T15:29:05;8.90;77.50
1778;DHT22;886;50.082;8.222;2023-03-01T15:31:54;8.80;77.80
1778;DHT22;886;50.082;8.222;2023-03-01T15:34:25;8.90;77.90
1778;DHT22;886;50.082;8.222;2023-03-01T15:36:56;8.90;77.30
1778;DHT22;886;50.082;8.222;2023-03-01T15:39:37;8.90;77.40
1778;DHT22;886;50.082;8.222;2023-03-01T15:42:08;8.90;77.60
1778;DHT22;886;50.082;8.222;2023-03-01T15:44:40;8.90;77.20
1778;DHT22;886;50.082;8.222;2023-03-01T15:47:25;8.90;77.30
1778;DHT22;886;50.082;8.222;2023-03-01T15:49:55;8.80;77.60
1778;DHT22;886;50.082;8.222;2023-03-01T15:52:26;8.70;78.00
1778;DHT22;886;50.082;8.222;2023-03-01T15:55:00;8.70;78.20
1778;DHT22;886;50.082;8.222;2023-03-01T15:57:29;8.70;78.30
1778;DHT22;886;50.082;8.222;2023-03-01T15:59:56;8.70;78.40
1778;DHT22;886;50.082;8.222;2023-03-01T16:02:24;8.70;78.60
1778;DHT22;886;50.082;8.222;2023-03-01T16:04:51;8.70;78.80
1778;DHT22;886;50.082;8.222;2023-03-01T16:07:22;8.60;79.00
1778;DHT22;886;50.082;8.222;2023-03-01T16:09:49;8.60;79.00
1778;DHT22;886;50.082;8.222;2023-03-01T16:12:17;8.50;79.10
1778;DHT22;886;50.082;8.222;2023-03-01T16:14:44;8.50;79.30
1778;DHT22;886;50.082;8.222;2023-03-01T16:17:12;8.50;79.20
1778;DHT22;886;50.082;8.222;2023-03-01T16:19:40;8.40;79.40
1778;DHT22;886;50.082;8.222;2023-03-01T16:22:09;8.50;79.50
1778;DHT22;886;50.082;8.222;2023-03-01T16:24:38;8.40;79.40
1778;DHT22;886;50.082;8.222;2023-03-01T16:27:07;8.40;79.60
1778;DHT22;886;50.082;8.222;2023-03-01T16:29:35;8.40;79.80
1778;DHT22;886;50.082;8.222;2023-03-01T16:32:02;8.40;79.80
1778;DHT22;886;50.082;8.222;2023-03-01T16:34:30;8.30;79.60
1778;DHT22;886;50.082;8.222;2023-03-01T16:36:58;8.30;79.60
1778;DHT22;886;50.082;8.222;2023-03-01T16:39:25;8.20;80.10
1778;DHT22;886;50.082;8.222;2023-03-01T16:42:00;8.10;79.50
1778;DHT22;886;50.082;8.222;2023-03-01T16:44:27;8.10;79.60
1778;DHT22;886;50.082;8.222;2023-03-01T16:46:55;8.10;79.70
1778;DHT22;886;50.082;8.222;2023-03-01T16:49:22;8.00;79.40
1778;DHT22;886;50.082;8.222;2023-03-01T16:51:49;8.00;79.40
1778;DHT22;886;50.082;8.222;2023-03-01T16:54:34;7.90;79.70
1778;DHT22;886;50.082;8.222;2023-03-01T16:57:03;7.80;79.50
1778;DHT22;886;50.082;8.222;2023-03-01T16:59:31;7.80;79.40
1778;DHT22;886;50.082;8.222;2023-03-01T17:01:58;7.80;79.20
1778;DHT22;886;50.082;8.222;2023-03-01T17:04:26;7.70;79.30
1778;DHT22;886;50.082;8.222;2023-03-01T17:06:53;7.70;79.40
1778;DHT22;886;50.082;8.222;2023-03-01T17:09:21;7.70;79.10
1778;DHT22;886;50.082;8.222;2023-03-01T17:11:48;7.70;79.30
1778;DHT22;886;50.082;8.222;2023-03-01T17:14:18;7.70;79.30
1778;DHT22;886;50.082;8.222;2023-03-01T17:16:45;7.70;79.00
1778;DHT22;886;50.082;8.222;2023-03-01T17:19:13;7.70;79.20
1778;DHT22;886;50.082;8.222;2023-03-01T17:21:45;7.70;79.20
1778;DHT22;886;50.082;8.222;2023-03-01T17:24:12;7.70;80.30
1778;DHT22;886;50.082;8.222;2023-03-01T17:26:40;7.70;80.00
1778;DHT22;886;50.082;8.222;2023-03-01T17:29:07;7.70;79.30
1778;DHT22;886;50.082;8.222;2023-03-01T17:31:36;7.60;79.50